createdAt,value
2019-04-11T00:00:59.550Z,63.45
2019-04-11T00:01:56.869Z,62.78
2019-04-11T00:02:55.426Z,62.78
2019-04-11T00:03:54.091Z,62.97
2019-04-11T00:04:52.626Z,63.42
2019-04-11T00:05:51.249Z,63.64
2019-04-11T00:06:49.973Z,63.26
2019-04-11T00:09:30.418Z,63.6
2019-04-11T00:10:29.139Z,63.51
2019-04-11T00:11:28.132Z,63.8
2019-04-11T00:12:26.265Z,62.84
2019-04-11T00:13:27.385Z,63.51
2019-04-11T00:14:24.173Z,63.42
2019-04-11T00:15:21.832Z,63.23
2019-04-11T00:16:21.382Z,63.13
2019-04-11T00:17:19.557Z,63.32
2019-04-11T00:18:18.581Z,63.99
2019-04-11T00:19:16.177Z,63.6
2019-04-11T00:20:15.850Z,63.42
2019-04-11T00:21:13.559Z,63.23
2019-04-11T00:37:59.617Z,63.13
2019-04-11T00:38:59.281Z,62.94
2019-04-11T00:39:56.810Z,63.42
2019-04-11T00:40:55.526Z,62.56
2019-04-11T00:41:54.366Z,63.04
2019-04-11T00:42:52.685Z,63.23
2019-04-11T00:43:52.295Z,63.32
2019-04-11T00:44:49.945Z,63.7
2019-04-11T00:45:48.849Z,63.23
2019-04-11T00:46:48.762Z,63.42
2019-04-11T00:47:47.011Z,63.42
2019-04-11T00:48:45.983Z,63.8
2019-04-11T00:49:43.521Z,63.6
2019-04-11T00:50:43.321Z,63.42
2019-04-11T00:51:42.239Z,63.51
2019-04-11T00:52:39.816Z,63.89
2019-04-11T00:53:38.377Z,64.05
2019-04-11T00:54:37.025Z,63.76
2019-04-11T00:55:35.722Z,63.86
2019-04-11T00:56:34.517Z,63.6
2019-04-11T00:57:32.811Z,63.76
2019-04-11T00:58:31.860Z,63.76
2019-04-11T00:59:30.047Z,63.67
2019-04-11T01:00:29.149Z,64.15
2019-04-11T01:01:28.098Z,64.62
2019-04-11T01:02:25.628Z,63.96
2019-04-11T01:03:24.285Z,64.05
2019-04-11T01:04:23.443Z,64.05
2019-04-11T01:05:21.407Z,64.05
2019-04-11T01:06:20.405Z,63.89
2019-04-11T01:07:18.577Z,63.57
2019-04-11T01:08:17.689Z,63.57
2019-04-11T01:09:15.921Z,63.2
2019-04-11T01:10:14.454Z,63.2
2019-04-11T01:11:13.999Z,63.96
2019-04-11T01:12:12.192Z,64.05
2019-04-11T01:13:11.230Z,63.57
2019-04-11T01:14:09.752Z,63.86
2019-04-11T01:15:07.367Z,63.57
2019-04-11T01:16:07.050Z,63.39
2019-04-11T01:17:06.118Z,63.76
2019-04-11T01:18:03.605Z,63.57
2019-04-11T01:19:02.567Z,63.96
2019-04-11T01:20:00.517Z,63.67
2019-04-11T01:20:59.832Z,63.86
2019-04-11T01:21:58.306Z,63.86
2019-04-11T01:22:56.433Z,63.86
2019-04-11T01:23:55.426Z,63.57
2019-04-11T01:24:53.422Z,63.48
2019-04-11T01:25:52.720Z,63.64
2019-04-11T01:26:51.673Z,64.15
2019-04-11T01:27:50.002Z,64.24
2019-04-11T01:28:48.882Z,63.76
2019-04-11T01:29:47.367Z,63.48
2019-04-11T01:30:45.282Z,63.57
2019-04-11T01:31:44.207Z,63.76
2019-04-11T01:32:42.436Z,63.39
2019-04-11T01:33:42.114Z,63.57
2019-04-11T01:34:40.422Z,63.39
2019-04-11T01:35:38.109Z,63.39
2019-04-11T01:36:37.382Z,63.48
2019-04-11T01:37:35.577Z,63.57
2019-04-11T01:38:34.621Z,63.76
2019-04-11T01:39:32.801Z,63.67
2019-04-11T01:40:31.879Z,63.57
2019-04-11T01:41:30.870Z,63.39
2019-04-11T01:42:28.463Z,63.39
2019-04-11T01:43:28.111Z,63.76
2019-04-11T01:44:25.621Z,64.24
2019-04-11T01:45:25.286Z,64.43
2019-04-11T01:46:22.728Z,64.34
2019-04-11T01:47:22.481Z,65.1
2019-04-11T01:48:19.858Z,65.77
2019-04-11T01:49:18.369Z,66.05
2019-04-11T01:50:16.908Z,66.31
2019-04-11T01:51:15.778Z,67.64
2019-04-11T01:52:14.078Z,67.48
2019-04-11T01:53:13.026Z,67.68
2019-04-11T01:54:11.247Z,67.55
2019-04-11T01:55:10.265Z,67.48
2019-04-11T01:56:09.335Z,67.55
2019-04-11T01:57:06.887Z,67.86
2019-04-11T01:58:06.627Z,67.68
2019-04-11T01:59:04.892Z,67.77
2019-04-11T02:00:03.823Z,67.77
2019-04-11T02:01:01.451Z,68.05
2019-04-11T02:02:01.134Z,68.24
2019-04-11T02:02:59.039Z,68.34
2019-04-11T02:03:57.480Z,68.78
2019-04-11T02:04:56.456Z,68.78
2019-04-11T02:05:54.617Z,68.69
2019-04-11T02:06:54.116Z,69.07
2019-04-11T02:07:53.150Z,70.02
2019-04-11T02:08:51.342Z,69.35
2019-04-11T02:09:49.098Z,69.93
2019-04-11T02:10:48.660Z,69.83
2019-04-11T02:11:46.241Z,70.21
2019-04-11T02:12:45.588Z,70.12
2019-04-11T02:13:43.823Z,70.4
2019-04-11T02:14:42.090Z,70.31
2019-04-11T02:15:40.825Z,70.21
2019-04-11T02:16:39.427Z,70.31
2019-04-11T02:17:39.027Z,70.21
2019-04-11T02:18:37.341Z,70.5
2019-04-11T02:19:35.065Z,70.21
2019-04-11T02:20:33.753Z,70.21
2019-04-11T02:21:32.322Z,70.4
2019-04-11T02:22:30.955Z,70.88
2019-04-11T02:23:30.853Z,70.69
2019-04-11T02:24:28.340Z,70.4
2019-04-11T02:25:28.006Z,71.07
2019-04-11T02:26:25.592Z,70.78
2019-04-11T02:27:24.715Z,71.07
2019-04-11T02:28:22.715Z,70.69
2019-04-11T02:29:21.418Z,70.69
2019-04-11T02:30:20.869Z,70.88
2019-04-11T02:31:20.144Z,70.69
2019-04-11T02:32:18.406Z,71.07
2019-04-11T02:33:16.408Z,71.07
2019-04-11T02:34:15.940Z,71.17
2019-04-11T02:35:13.400Z,71.07
2019-04-11T02:36:12.154Z,70.97
2019-04-11T02:37:10.218Z,70.97
2019-04-11T02:38:09.689Z,70.88
2019-04-11T02:39:12.097Z,71.07
2019-04-11T02:40:07.504Z,71.07
2019-04-11T02:41:06.394Z,71.17
2019-04-11T02:42:03.818Z,71.26
2019-04-11T02:43:01.745Z,71.64
2019-04-11T02:44:01.440Z,71.93
2019-04-11T02:45:12.989Z,72.27
2019-04-11T02:46:09.666Z,72.46
2019-04-11T02:47:05.023Z,72.46
2019-04-11T02:47:56.352Z,72.17
2019-04-11T02:48:54.483Z,72.37
2019-04-11T02:49:52.120Z,72.75
2019-04-11T02:50:50.870Z,73.22
2019-04-11T02:51:49.747Z,73.13
2019-04-11T02:52:49.567Z,72.65
2019-04-11T02:53:47.230Z,72.46
2019-04-11T02:54:45.275Z,72.65
2019-04-11T02:55:45.608Z,72.46
2019-04-11T02:56:43.455Z,72.75
2019-04-11T02:57:42.681Z,73.22
2019-04-11T02:58:40.037Z,72.56
2019-04-11T02:59:38.893Z,72.85
2019-04-11T03:00:37.611Z,72.46
2019-04-11T03:01:36.294Z,72.27
2019-04-11T03:02:34.694Z,72.65
2019-04-11T03:03:34.099Z,72.31
2019-04-11T03:04:31.633Z,72.21
2019-04-11T03:05:30.985Z,72.46
2019-04-11T03:06:28.212Z,72.65
2019-04-11T03:07:26.761Z,73.22
2019-04-11T03:08:26.715Z,73.13
2019-04-11T03:09:24.267Z,72.85
2019-04-11T03:10:22.699Z,73.61
2019-04-11T03:11:21.878Z,73.32
2019-04-11T03:12:21.495Z,73.22
2019-04-11T03:13:19.004Z,73.22
2019-04-11T03:14:18.978Z,73.22
2019-04-11T03:15:31.549Z,72.94
2019-04-11T03:16:27.669Z,73.61
2019-04-11T03:17:20.390Z,73.41
2019-04-11T03:18:14.487Z,73.8
2019-04-11T03:19:24.978Z,72.85
2019-04-11T03:20:19.370Z,72.85
2019-04-11T03:21:13.520Z,73.13
2019-04-11T03:22:07.844Z,73.7
2019-04-11T03:23:07.589Z,73.7
2019-04-11T03:24:06.074Z,73.51
2019-04-11T03:25:03.070Z,73.32
2019-04-11T03:26:00.690Z,73.7
2019-04-11T03:27:02.675Z,73.7
2019-04-11T03:27:58.835Z,73.61
2019-04-11T03:28:57.300Z,73.61
2019-04-11T03:29:55.861Z,73.51
2019-04-11T03:31:12.684Z,73.28
2019-04-11T03:32:27.141Z,73.76
2019-04-11T03:37:22.909Z,74.33
2019-04-11T03:38:03.394Z,74.46
2019-04-11T03:40:41.073Z,73.95
2019-04-11T03:41:37.174Z,73.8
2019-04-11T03:42:37.946Z,74.04
2019-04-11T03:43:29.599Z,74.18
2019-04-11T03:44:24.093Z,74.14
2019-04-11T03:45:36.233Z,73.66
2019-04-11T03:46:32.390Z,73.76
2019-04-11T03:47:27.588Z,74.04
2019-04-11T03:48:28.880Z,74.71
2019-04-11T03:50:37.009Z,74.52
2019-04-11T03:51:36.265Z,74.24
2019-04-11T03:52:32.818Z,74.43
2019-04-11T03:53:32.406Z,74.52
2019-04-11T03:54:31.666Z,75.19
2019-04-11T03:55:30.623Z,75.38
2019-04-11T03:56:28.512Z,75.53
2019-04-11T03:57:27.550Z,75.47
2019-04-11T03:58:25.753Z,75.81
2019-04-11T04:00:49.597Z,75.53
2019-04-11T04:01:46.675Z,75.43
2019-04-11T04:02:46.567Z,75.28
2019-04-11T04:03:44.607Z,75.47
2019-04-11T04:04:43.402Z,75.09
2019-04-11T04:05:41.904Z,74.52
2019-04-11T04:06:39.412Z,74.52
2019-04-11T04:07:38.055Z,74.8
2019-04-11T04:08:36.272Z,75.43
2019-04-11T04:09:35.245Z,75.15
2019-04-11T04:10:34.030Z,75.15
2019-04-11T04:11:33.775Z,75.53
2019-04-11T04:12:31.400Z,75.72
2019-04-11T04:13:31.602Z,75.53
2019-04-11T04:14:28.463Z,75.53
2019-04-11T04:15:44.003Z,75.53
2019-04-11T04:16:31.186Z,75.24
2019-04-11T04:17:23.920Z,75.05
2019-04-11T04:18:23.663Z,75.15
2019-04-11T04:19:22.494Z,75.43
2019-04-11T04:20:19.877Z,74.96
2019-04-11T04:21:18.073Z,75.24
2019-04-11T04:22:18.408Z,75.53
2019-04-11T04:23:16.586Z,75.43
2019-04-11T04:24:14.537Z,75.34
2019-04-11T04:25:12.540Z,75.43
2019-04-11T04:26:12.115Z,75.53
2019-04-11T04:27:10.230Z,75.91
2019-04-11T04:28:10.037Z,76.1
2019-04-11T04:29:07.482Z,75.91
2019-04-11T04:30:06.045Z,76.29
2019-04-11T04:31:04.639Z,76.39
2019-04-11T04:32:02.995Z,76.1
2019-04-11T04:33:02.852Z,76.48
2019-04-11T04:34:01.841Z,76.29
2019-04-11T04:35:00.517Z,76.67
2019-04-11T04:35:58.010Z,76.63
2019-04-11T04:36:57.703Z,77.01
2019-04-11T04:37:54.630Z,77.15
2019-04-11T04:38:54.444Z,76.76
2019-04-11T04:40:13.083Z,76.73
2019-04-11T04:41:05.408Z,77.2
2019-04-11T04:41:58.647Z,77.01
2019-04-11T04:42:50.767Z,76.67
2019-04-11T04:43:46.261Z,76.54
2019-04-11T04:44:46.531Z,76.57
2019-04-11T04:46:03.275Z,76.16
2019-04-11T04:46:55.282Z,76.35
2019-04-11T04:47:47.595Z,76.67
2019-04-11T04:48:40.931Z,76.1
2019-04-11T04:49:38.772Z,75.81
2019-04-11T04:50:38.741Z,76.06
2019-04-11T04:51:35.276Z,76.01
2019-04-11T04:52:34.474Z,76.1
2019-04-11T04:53:33.014Z,76.1
2019-04-11T04:54:33.014Z,75.87
2019-04-11T04:55:30.259Z,75.72
2019-04-11T04:56:31.430Z,75.96
2019-04-11T04:57:29.173Z,76.16
2019-04-11T04:58:26.401Z,76.06
2019-04-11T04:59:24.258Z,75.87
2019-04-11T05:00:23.300Z,76.44
2019-04-11T05:01:23.551Z,76.35
2019-04-11T05:02:20.685Z,76.06
2019-04-11T05:03:20.001Z,75.78
2019-04-11T05:04:18.910Z,76.06
2019-04-11T05:05:17.756Z,76.54
2019-04-11T05:06:16.294Z,77.39
2019-04-11T05:07:15.087Z,76.54
2019-04-11T05:08:12.081Z,77.3
2019-04-11T05:09:10.803Z,77.11
2019-04-11T05:10:09.205Z,76.44
2019-04-11T05:11:07.823Z,75.87
2019-04-11T05:12:06.399Z,75.72
2019-04-11T05:13:05.637Z,75.3
2019-04-11T05:14:05.046Z,75.4
2019-04-11T05:15:03.649Z,75.34
2019-04-11T05:16:08.177Z,74.92
2019-04-11T05:17:00.404Z,75.15
2019-04-11T05:17:59.441Z,74.67
2019-04-11T05:18:57.970Z,74.58
2019-04-11T05:19:56.470Z,74.48
2019-04-11T05:20:54.759Z,74.39
2019-04-11T05:21:52.534Z,74.58
2019-04-11T05:22:51.319Z,74.58
2019-04-11T05:23:50.055Z,74.87
2019-04-11T05:24:48.528Z,74.44
2019-04-11T05:25:47.312Z,75.15
2019-04-11T05:26:46.002Z,74.67
2019-04-11T05:29:27.160Z,74.29
2019-04-11T05:30:25.212Z,74.39
2019-04-11T05:31:23.386Z,74.01
2019-04-11T05:32:22.131Z,73.72
2019-04-11T05:33:21.231Z,74.39
2019-04-11T05:34:20.242Z,74.48
2019-04-11T05:36:59.441Z,74.77
2019-04-11T05:37:58.022Z,74.77
2019-04-11T05:38:56.567Z,74.67
2019-04-11T05:39:55.638Z,74.29
2019-04-11T05:40:54.530Z,74.01
2019-04-11T05:41:52.610Z,74.1
2019-04-11T05:42:52.573Z,74.1
2019-04-11T05:43:49.997Z,74.1
2019-04-11T05:44:49.860Z,74.2
2019-04-11T05:45:48.398Z,74.29
2019-04-11T05:46:51.970Z,73.91
2019-04-11T05:47:46.072Z,73.91
2019-04-11T05:48:43.132Z,73.91
2019-04-11T05:49:42.485Z,73.34
2019-04-11T05:50:43.236Z,73.53
2019-04-11T05:51:41.532Z,73.25
2019-04-11T05:52:37.703Z,74.01
2019-04-11T05:53:38.030Z,73.72
2019-04-11T05:54:36.382Z,72.67
2019-04-11T05:55:34.193Z,73.38
2019-04-11T05:56:33.372Z,72.71
2019-04-11T05:57:35.413Z,72.42
2019-04-11T05:58:30.343Z,73.38
2019-04-11T05:59:28.431Z,72.81
2019-04-11T06:00:28.341Z,72.24
2019-04-11T06:01:27.283Z,71.95
2019-04-11T06:02:24.995Z,71.76
2019-04-11T06:03:23.899Z,72.05
2019-04-11T06:04:23.990Z,72.14
2019-04-11T06:05:23.760Z,71.76
2019-04-11T06:06:20.184Z,71.57
2019-04-11T06:07:18.588Z,71.67
2019-04-11T06:08:22.404Z,71.57
2019-04-11T06:09:16.198Z,71.67
2019-04-11T06:10:14.661Z,71.67
2019-04-11T06:11:16.287Z,71.76
2019-04-11T06:12:11.630Z,71.19
2019-04-11T06:13:10.066Z,71.67
2019-04-11T06:14:09.264Z,71.38
2019-04-11T06:15:06.539Z,71
2019-04-11T06:16:06.219Z,70.62
2019-04-11T06:17:03.626Z,70.72
2019-04-11T06:18:02.751Z,71
2019-04-11T06:19:00.925Z,70.62
2019-04-11T06:19:59.507Z,70.56
2019-04-11T06:20:58.189Z,70.47
2019-04-11T06:21:56.749Z,70.08
2019-04-11T06:22:56.170Z,69.51
2019-04-11T06:23:53.969Z,68.84
2019-04-11T06:24:52.569Z,69.04
2019-04-11T06:25:51.380Z,68.65
2019-04-11T06:26:49.780Z,68.94
2019-04-11T06:27:49.233Z,69.1
2019-04-11T06:28:47.321Z,69.57
2019-04-11T06:29:45.627Z,69.57
2019-04-11T06:30:44.404Z,69.42
2019-04-11T06:31:42.778Z,68.9
2019-04-11T06:32:41.327Z,68.81
2019-04-11T06:33:40.698Z,68.71
2019-04-11T06:36:20.981Z,68.71
2019-04-11T06:37:19.268Z,68.75
2019-04-11T06:38:18.494Z,67.8
2019-04-11T06:39:16.320Z,67.51
2019-04-11T06:40:15.844Z,67.64
2019-04-11T06:41:14.512Z,66.97
2019-04-11T06:42:12.881Z,66.31
2019-04-11T06:59:56.706Z,61.29
2019-04-11T07:00:55.749Z,61.86
2019-04-11T07:01:54.995Z,61.67
2019-04-11T07:02:52.905Z,61.96
2019-04-11T07:03:51.130Z,62.52
2019-04-11T07:04:49.801Z,62.43
2019-04-11T07:05:48.930Z,62.08
2019-04-11T07:06:48.086Z,61.76
2019-04-11T07:07:45.610Z,61.76
2019-04-11T07:08:44.781Z,61.48
2019-04-11T07:09:42.644Z,61.96
2019-04-11T07:10:42.512Z,62.24
2019-04-11T07:11:40.503Z,62.15
2019-04-11T07:12:38.794Z,61.32
2019-04-11T07:13:37.461Z,61.29
2019-04-11T07:14:36.054Z,61.29
2019-04-11T07:15:35.559Z,61.19
2019-04-11T07:16:34.027Z,61.76
2019-04-11T07:17:31.818Z,62.15
2019-04-11T07:18:31.210Z,61.86
2019-04-11T07:19:28.925Z,61.76
2019-04-11T07:20:27.454Z,61.76
2019-04-11T07:21:26.088Z,61.29
2019-04-11T07:22:25.199Z,61.38
2019-04-11T07:23:24.309Z,61.38
2019-04-11T07:24:22.408Z,61.22
2019-04-11T07:25:20.816Z,61.8
2019-04-11T07:26:19.383Z,61.41
2019-04-11T07:27:18.126Z,61.41
2019-04-11T07:28:16.667Z,61.41
2019-04-11T07:29:15.296Z,60.94
2019-04-11T07:30:13.873Z,61.29
2019-04-11T07:31:12.787Z,61.41
2019-04-11T07:32:11.644Z,61.41
2019-04-11T07:33:11.031Z,61.32
2019-04-11T07:34:08.738Z,61.51
2019-04-11T07:35:06.802Z,61.32
2019-04-11T07:36:05.948Z,60.94
2019-04-11T07:37:04.533Z,61.13
2019-04-11T07:38:03.095Z,61.13
2019-04-11T07:39:01.084Z,61.13
2019-04-11T07:40:00.744Z,60.65
2019-04-11T07:40:58.861Z,60.36
2019-04-11T07:41:57.821Z,60.46
2019-04-11T07:42:59.402Z,60.55
2019-04-11T07:43:54.240Z,60.65
2019-04-11T07:44:52.376Z,60.55
2019-04-11T07:45:51.279Z,60.65
2019-04-11T07:46:49.680Z,60.46
2019-04-11T07:47:48.394Z,61.22
2019-04-11T07:50:28.513Z,60.55
2019-04-11T07:51:27.550Z,60.46
2019-04-11T07:53:50.451Z,59.7
2019-04-11T07:54:48.807Z,59.7
2019-04-11T07:55:47.546Z,59.89
2019-04-11T07:56:46.318Z,59.7
2019-04-11T07:57:44.763Z,59.89
2019-04-11T07:58:43.216Z,59.79
2019-04-11T07:59:41.905Z,59.7
2019-04-11T08:00:44.697Z,60.17
2019-04-11T08:01:38.877Z,59.89
2019-04-11T08:02:37.754Z,59.67
2019-04-11T08:03:36.196Z,59.79
2019-04-11T08:04:34.740Z,59.79
2019-04-11T08:05:34.534Z,59.51
2019-04-11T08:06:33.073Z,59.41
2019-04-11T08:07:30.683Z,58.75
2019-04-11T08:08:30.232Z,58.65
2019-04-11T08:09:28.947Z,58.75
2019-04-11T08:10:27.197Z,58.94
2019-04-11T08:13:06.898Z,57.79
2019-04-11T08:15:07.046Z,58.26
2019-04-11T08:17:37.501Z,58.26
2019-04-11T08:18:30.764Z,58.55
2019-04-11T08:19:29.529Z,58.36
2019-04-11T08:20:29.071Z,58.17
2019-04-11T08:21:26.691Z,58.55
2019-04-11T08:22:25.263Z,58.55
2019-04-11T08:25:05.687Z,58.65
2019-04-11T08:26:04.221Z,59.03
2019-04-11T08:27:03.027Z,58.36
2019-04-11T08:29:07.450Z,58.75
2019-04-11T08:29:58.552Z,58.97
2019-04-11T08:30:57.385Z,58.55
2019-04-11T08:31:56.554Z,58.84
2019-04-11T08:32:54.275Z,58.75
2019-04-11T08:33:53.064Z,58.84
2019-04-11T08:34:51.440Z,58.36
2019-04-11T08:35:51.904Z,58.55
2019-04-11T08:36:48.958Z,58.75
2019-04-11T08:37:47.608Z,58.26
2019-04-11T08:38:46.684Z,58.84
2019-04-11T08:39:44.978Z,58.75
2019-04-11T08:40:43.253Z,58.36
2019-04-11T08:41:42.017Z,58.36
2019-04-11T08:42:40.691Z,58.46
2019-04-11T08:43:39.334Z,58.26
2019-04-11T08:44:37.511Z,58.36
2019-04-11T08:45:36.102Z,58.39
2019-04-11T08:46:35.103Z,57.98
2019-04-11T08:47:41.386Z,58.46
2019-04-11T08:48:33.013Z,58.46
2019-04-11T08:49:32.005Z,58.48
2019-04-11T08:50:30.223Z,58.26
2019-04-11T08:51:27.854Z,58.48
2019-04-11T08:54:09.100Z,58.58
2019-04-11T08:55:06.753Z,58.68
2019-04-11T08:56:05.605Z,58.58
2019-04-11T08:57:04.242Z,58.39
2019-04-11T08:58:02.658Z,57.63
2019-04-11T08:59:01.311Z,57.63
2019-04-11T09:00:00.001Z,57.53
2019-04-11T09:01:00.175Z,57.43
2019-04-11T09:01:57.073Z,57.34
2019-04-11T09:02:55.533Z,57.34
2019-04-11T09:04:01.967Z,57.72
2019-04-11T09:05:03.076Z,57.72
2019-04-11T09:05:51.330Z,57.92
2019-04-11T09:06:49.812Z,57.53
2019-04-11T09:09:13.235Z,58.2
2019-04-11T09:10:11.577Z,57.82
2019-04-11T09:11:10.699Z,57.92
2019-04-11T09:12:08.378Z,57.92
2019-04-11T09:13:07.062Z,57.72
2019-04-11T09:14:06.087Z,57.53
2019-04-11T09:15:04.455Z,57.92
2019-04-11T09:16:03.493Z,57.63
2019-04-11T09:17:01.798Z,58.48
2019-04-11T09:18:04.586Z,58.48
2019-04-11T09:18:59.566Z,57.63
2019-04-11T09:19:57.279Z,57.63
2019-04-11T09:20:56.116Z,57.63
2019-04-11T09:21:54.702Z,57.34
2019-04-11T09:22:53.355Z,57.72
2019-04-11T09:23:52.219Z,57.72
2019-04-11T09:24:50.580Z,58.29
2019-04-11T09:25:51.663Z,58.58
2019-04-11T09:26:47.909Z,57.92
2019-04-11T09:27:46.998Z,57.82
2019-04-11T09:28:45.899Z,57.72
2019-04-11T09:29:43.698Z,57.72
2019-04-11T09:30:43.102Z,58.39
2019-04-11T09:31:41.658Z,58.29
2019-04-11T09:32:40.342Z,57.79
2019-04-11T09:33:39.423Z,58.17
2019-04-11T09:34:37.664Z,58.36
2019-04-11T09:35:35.412Z,58.36
2019-04-11T09:36:34.062Z,58.48
2019-04-11T09:37:33.770Z,58.48
2019-04-11T09:38:31.296Z,58.87
2019-04-11T09:39:30.960Z,58.2
2019-04-11T09:40:28.512Z,58.58
2019-04-11T09:41:28.095Z,58.68
2019-04-11T09:42:26.128Z,58.01
2019-04-11T09:43:24.280Z,58.58
2019-04-11T09:44:22.841Z,58.58
2019-04-11T09:45:21.578Z,58.48
2019-04-11T09:46:20.284Z,58.87
2019-04-11T09:47:19.761Z,58.48
2019-04-11T09:48:19.091Z,58.58
2019-04-11T09:49:16.087Z,58.2
2019-04-11T09:50:14.658Z,58.87
2019-04-11T09:51:13.523Z,58.29
2019-04-11T09:52:12.222Z,58.29
2019-04-11T09:53:10.296Z,58.58
2019-04-11T09:54:09.922Z,58.68
2019-04-11T09:55:08.540Z,58.29
2019-04-11T09:56:06.834Z,58.48
2019-04-11T09:57:04.520Z,58.39
2019-04-11T09:58:03.081Z,57.63
2019-04-11T09:59:02.309Z,58.39
2019-04-11T10:00:01.739Z,57.72
2019-04-11T10:00:59.410Z,57.53
2019-04-11T10:01:58.221Z,57.34
2019-04-11T10:02:56.332Z,57.43
2019-04-11T10:03:54.727Z,57.34
2019-04-11T10:04:54.355Z,56.67
2019-04-11T10:05:51.869Z,55.53
2019-04-11T10:06:50.770Z,55.53
2019-04-11T10:07:50.205Z,56.01
2019-04-11T10:08:47.581Z,55.43
2019-04-11T10:09:46.354Z,55.34
2019-04-11T10:10:46.223Z,55.43
2019-04-11T10:11:43.324Z,55.05
2019-04-11T10:12:42.520Z,54.57
2019-04-11T10:13:40.714Z,54.67
2019-04-11T10:14:39.768Z,55.21
2019-04-11T10:15:38.177Z,55.24
2019-04-11T10:16:36.838Z,55.34
2019-04-11T10:17:35.990Z,55.15
2019-04-11T10:18:38.471Z,55.34
2019-04-11T10:19:32.746Z,55.15
2019-04-11T10:20:31.317Z,54.48
2019-04-11T10:21:31.065Z,54
2019-04-11T10:22:29.161Z,54.29
2019-04-11T10:23:27.228Z,54.29
2019-04-11T10:24:26.341Z,54.67
2019-04-11T10:25:25.309Z,54.29
2019-04-11T10:26:23.563Z,54.29
2019-04-11T10:27:22.542Z,53.81
2019-04-11T10:28:19.973Z,53.33
2019-04-11T10:29:19.222Z,52.95
2019-04-11T10:30:17.344Z,53.91
2019-04-11T10:31:15.834Z,53.53
2019-04-11T10:32:14.912Z,54
2019-04-11T10:33:13.044Z,54.19
2019-04-11T10:34:11.762Z,53.84
2019-04-11T10:35:10.370Z,52.88
2019-04-11T10:36:08.946Z,52.38
2019-04-11T10:37:07.554Z,52.48
2019-04-11T10:38:06.777Z,52.67
2019-04-11T10:39:04.800Z,52.67
2019-04-11T10:40:03.978Z,52.67
2019-04-11T10:41:02.081Z,52.38
2019-04-11T10:42:00.637Z,52.48
2019-04-11T10:43:00.892Z,52.76
2019-04-11T10:43:59.295Z,52.76
2019-04-11T10:44:56.478Z,52.28
2019-04-11T10:45:55.244Z,52.59
2019-04-11T10:46:53.658Z,52.95
2019-04-11T10:47:54.255Z,53.81
2019-04-11T10:48:50.738Z,53.62
2019-04-11T10:49:50.456Z,52.79
2019-04-11T10:50:48.634Z,51.83
2019-04-11T10:51:47.614Z,52.4
2019-04-11T10:52:44.975Z,52.4
2019-04-11T10:53:43.797Z,52.69
2019-04-11T10:54:42.289Z,52.69
2019-04-11T10:55:41.933Z,52.12
2019-04-11T10:56:39.597Z,49.83
2019-04-11T10:57:38.388Z,48.88
2019-04-11T10:58:37.203Z,48.59
2019-04-11T10:59:35.482Z,49.54
2019-04-11T11:00:34.103Z,50.21
2019-04-11T11:01:33.747Z,50.78
2019-04-11T11:02:31.620Z,51.35
2019-04-11T11:03:30.644Z,51.54
2019-04-11T11:04:28.602Z,51.74
2019-04-11T11:05:26.993Z,51.64
2019-04-11T11:06:25.715Z,51.74
2019-04-11T11:07:24.697Z,52.03
2019-04-11T11:08:23.562Z,51.35
2019-04-11T11:09:21.856Z,51.54
2019-04-11T11:10:20.114Z,51.74
2019-04-11T11:11:19.426Z,51.54
2019-04-11T11:12:17.487Z,51.07
2019-04-11T11:13:16.230Z,50.98
2019-04-11T11:14:14.808Z,50.88
2019-04-11T11:15:13.636Z,51.07
2019-04-11T11:16:12.073Z,50.4
2019-04-11T11:17:10.804Z,50.31
2019-04-11T11:18:42.094Z,50.62
2019-04-11T11:19:27.201Z,50.33
2019-04-11T11:20:16.261Z,50.33
2019-04-11T11:21:05.952Z,49.83
2019-04-11T11:22:04.983Z,49.64
2019-04-11T11:23:02.800Z,48.68
2019-04-11T11:24:01.506Z,48.88
2019-04-11T11:25:00.121Z,48.88
2019-04-11T11:25:58.494Z,48.78
2019-04-11T11:26:58.622Z,49.54
2019-04-11T11:27:55.753Z,49.73
2019-04-11T11:28:53.883Z,48.68
2019-04-11T11:29:52.490Z,48.33
2019-04-11T11:30:51.929Z,48.11
2019-04-11T11:31:50.166Z,48.04
2019-04-11T11:32:49.672Z,47.66
2019-04-11T11:33:47.284Z,48.11
2019-04-11T11:34:49.189Z,48.21
2019-04-11T11:35:45.722Z,48.11
2019-04-11T11:36:43.719Z,47.73
2019-04-11T11:37:41.739Z,48.02
2019-04-11T11:38:40.331Z,48.52
2019-04-11T11:39:39.419Z,48.13
2019-04-11T11:40:39.074Z,47.66
2019-04-11T11:41:36.444Z,47.18
2019-04-11T11:42:34.633Z,47.47
2019-04-11T11:43:33.329Z,47.85
2019-04-11T11:44:32.932Z,48.3
2019-04-11T11:45:30.693Z,46.8
2019-04-11T11:46:31.008Z,47.18
2019-04-11T11:47:32.914Z,48.23
2019-04-11T11:48:27.825Z,48.04
2019-04-11T11:49:40.433Z,48.13
2019-04-11T11:50:24.023Z,47.85
2019-04-11T11:51:23.675Z,48.23
2019-04-11T11:52:21.209Z,47.85
2019-04-11T11:53:19.801Z,48.04
2019-04-11T11:54:19.674Z,48.33
2019-04-11T11:55:19.009Z,47.85
2019-04-11T11:56:15.891Z,47.94
2019-04-11T11:57:14.937Z,48.33
2019-04-11T11:58:16.636Z,48.04
2019-04-11T11:59:11.655Z,47.75
2019-04-11T12:00:10.467Z,48.42
2019-04-11T12:01:09.527Z,48.42
2019-04-11T12:02:08.474Z,48.13
2019-04-11T12:03:06.609Z,48.23
2019-04-11T12:04:05.198Z,48.23
2019-04-11T12:05:07.635Z,48.23
2019-04-11T12:06:03.046Z,47.56
2019-04-11T12:07:03.699Z,47.75
2019-04-11T12:08:00.385Z,47.66
2019-04-11T12:08:58.317Z,47.85
2019-04-11T12:09:56.846Z,47.08
2019-04-11T12:10:55.490Z,46.7
2019-04-11T12:11:55.439Z,47.08
2019-04-11T12:12:53.626Z,48.04
2019-04-11T12:13:51.577Z,48.23
2019-04-11T12:14:49.994Z,48.13
2019-04-11T12:15:48.996Z,48.33
2019-04-11T12:16:48.543Z,48.52
2019-04-11T12:17:46.918Z,48.71
2019-04-11T12:18:48.341Z,48.9
2019-04-11T12:19:51.015Z,49.57
2019-04-11T12:20:44.715Z,49.28
2019-04-11T12:21:40.956Z,49.38
2019-04-11T12:22:40.188Z,48.52
2019-04-11T12:23:47.126Z,47.94
2019-04-11T12:24:36.525Z,48.23
2019-04-11T12:25:34.919Z,48.23
2019-04-11T12:26:33.856Z,47.85
2019-04-11T12:27:32.953Z,48.23
2019-04-11T12:28:30.656Z,47.94
2019-04-11T12:29:30.422Z,48.33
2019-04-11T12:30:30.833Z,47.85
2019-04-11T12:31:28.677Z,48.13
2019-04-11T12:32:25.307Z,48.13
2019-04-11T12:33:23.894Z,47.85
2019-04-11T12:34:22.479Z,47.85
2019-04-11T12:35:23.163Z,47.85
2019-04-11T12:36:20.967Z,47.94
2019-04-11T12:37:19.738Z,47.47
2019-04-11T12:38:17.013Z,48.16
2019-04-11T12:39:15.730Z,47.78
2019-04-11T12:40:14.477Z,48.16
2019-04-11T12:41:13.010Z,48.07
2019-04-11T12:42:11.538Z,48.25
2019-04-11T12:43:10.122Z,48.16
2019-04-11T12:44:08.670Z,48.93
2019-04-11T12:45:07.321Z,49.69
2019-04-11T12:46:06.050Z,49.3
2019-04-11T12:47:07.531Z,49.4
2019-04-11T12:48:03.155Z,49.4
2019-04-11T12:49:01.756Z,49.69
2019-04-11T12:50:00.287Z,49.59
2019-04-11T12:50:58.817Z,49.69
2019-04-11T12:51:57.484Z,49.59
2019-04-11T12:52:56.209Z,49.78
2019-04-11T12:53:54.734Z,48.93
2019-04-11T12:54:53.315Z,48.64
2019-04-11T12:55:51.907Z,48.44
2019-04-11T12:56:50.423Z,48.25
2019-04-11T12:57:49.137Z,48.16
2019-04-11T12:58:47.777Z,47.68
2019-04-11T12:59:46.376Z,48.16
2019-04-11T13:00:44.996Z,48.44
2019-04-11T13:01:43.643Z,48.73
2019-04-11T13:02:42.197Z,48.93
2019-04-11T13:03:40.750Z,48.83
2019-04-11T13:04:39.297Z,48.93
2019-04-11T13:05:37.887Z,48.83
2019-04-11T13:06:36.435Z,49.11
2019-04-11T13:07:34.987Z,49.69
2019-04-11T13:08:33.545Z,49.69
2019-04-11T13:09:32.121Z,49.69
2019-04-11T13:10:30.686Z,49.3
2019-04-11T13:11:29.446Z,49.21
2019-04-11T13:12:28.206Z,48.35
2019-04-11T13:13:26.734Z,48.64
2019-04-11T13:14:25.332Z,48.35
2019-04-11T13:15:24.023Z,48.25
2019-04-11T13:16:22.649Z,48.16
2019-04-11T13:17:21.450Z,48.16
2019-04-11T13:18:20.356Z,48.73
2019-04-11T13:19:18.904Z,48.93
2019-04-11T13:20:17.510Z,49.3
2019-04-11T13:21:16.183Z,49.69
2019-04-11T13:22:14.834Z,49.69
2019-04-11T13:23:13.636Z,49.78
2019-04-11T13:24:12.404Z,49.3
2019-04-11T13:25:11.143Z,49.21
2019-04-11T13:27:51.776Z,48.93
2019-04-11T13:28:51.756Z,49.02
2019-04-11T13:29:48.887Z,49.02
2019-04-11T13:30:47.581Z,48.73
2019-04-11T13:31:46.463Z,48.35
2019-04-11T13:32:45.036Z,48.44
2019-04-11T13:33:43.891Z,48.35
2019-04-11T13:34:42.482Z,48.38
2019-04-11T13:56:10.059Z,48.18
2019-04-11T13:57:08.617Z,47.8
2019-04-11T13:58:07.386Z,47.99
2019-04-11T13:59:05.895Z,47.42
2019-04-11T14:00:04.542Z,47.8
2019-04-11T14:01:03.047Z,47.99